Home > Products > Valid Products > MTR

000
SAUS46 KMTR 191858
MTRMHS
METAR KMHS 191856Z AUTO VRB05KT 10SM CLR 18/M02 A3000 RMK AO2 SLP163
T01831022





000
SAUS46 KMTR 191758
MTRMHS
METAR KMHS 191756Z AUTO 10SM CLR 17/M04 A2998 RMK AO2 SLP159
T01721044 10178 20000 53005





000
SAUS46 KMTR 191659
MTRMHS
METAR KMHS 191656Z AUTO VRB03KT 10SM CLR 16/M03 A2996 RMK AO2 SLP152
T01611033





000
SAUS46 KMTR 191557
MTRMHS
METAR KMHS 191556Z AUTO VRB03KT 10SM CLR 14/M09 A2996 RMK AO2 SLP148
T01441089





000
SAUS46 KMTR 191459
MTRMHS
METAR KMHS 191456Z AUTO 00000KT 10SM CLR 07/M03 A2996 RMK AO2 SLP158
T00721028 53007





000
SAUS46 KMTR 191359
MTRMHS
METAR KMHS 191356Z AUTO 00000KT 10SM CLR 01/M04 A2995 RMK AO2 SLP155
T00061039





000
SAUS46 KMTR 191258
MTRMHS
METAR KMHS 191256Z AUTO 00000KT 10SM FEW120 01/M03 A2994 RMK AO2
SLP148 T00061033





000
SAUS46 KMTR 191159
MTRMHS
METAR KMHS 191156Z AUTO 06003KT 10SM CLR 02/M03 A2994 RMK AO2 SLP147
T00171033 10067 20006 53005





000
SAUS46 KMTR 191057
MTRMHS
METAR KMHS 191056Z AUTO 00000KT 10SM CLR 02/M03 A2993 RMK AO2 SLP144
T00171033





000
SAUS46 KMTR 190958
MTRMHS
METAR KMHS 190956Z AUTO 00000KT 10SM CLR 04/M03 A2992 RMK AO2 SLP138
T00391033





000
SAUS46 KMTR 190858
MTRMHS
METAR KMHS 190856Z AUTO 00000KT 10SM CLR 04/M03 A2992 RMK AO2 SLP141
T00391028 58004





000
SAUS46 KMTR 190758
MTRMHS
METAR KMHS 190756Z AUTO 00000KT 10SM CLR 06/M02 A2993 RMK AO2 SLP142
T00611022 402060033





000
SAUS46 KMTR 190657
MTRMHS
METAR KMHS 190656Z AUTO 00000KT 10SM CLR 06/M02 A2993 RMK AO2 SLP145
T00611022





000
SAUS46 KMTR 190557
MTRMHS
METAR KMHS 190556Z AUTO 04003KT 10SM CLR 06/M03 A2994 RMK AO2 SLP150
T00611028 10189 20056 50006





000
SAUS46 KMTR 190457
MTRMHS
METAR KMHS 190456Z AUTO 00000KT 10SM CLR 08/M02 A2994 RMK AO2 SLP153
T00781022





000
SAUS46 KMTR 190357
MTRMHS
METAR KMHS 190356Z AUTO 07003KT 10SM CLR 11/M01 A2993 RMK AO2 SLP146
T01061011





000
SAUS46 KMTR 190259
MTRMHS
METAR KMHS 190256Z AUTO 00000KT 10SM CLR 13/M03 A2992 RMK AO2 SLP144
T01281033 55001





000
SAUS46 KMTR 190157
MTRMHS
METAR KMHS 190156Z AUTO 00000KT 10SM CLR 16/M04 A2991 RMK AO2 SLP139
T01611039





000
SAUS46 KMTR 190058
MTRMHS
METAR KMHS 190056Z AUTO VRB04KT 10SM CLR 18/M01 A2992 RMK AO2 SLP136
T01831006





000
SAUS46 KMTR 182357
MTRMHS
METAR KMHS 182356Z AUTO 31008KT 270V340 10SM CLR 19/01 A2992 RMK AO2
SLP137 T01890006 10206 20117 56015





000
SAUS46 KMTR 182158
MTRMHS
METAR KMHS 182156Z AUTO VRB04KT 10SM CLR 19/00 A2995 RMK AO2 SLP146
T01940000





000
SAUS46 KMTR 181957
MTRMHS
METAR KMHS 181956Z AUTO VRB03KT 10SM CLR 17/02 A2999 RMK AO2 SLP160
T01720017





000
SAUS46 KMTR 181857
MTRMHS
METAR KMHS 181856Z AUTO VRB04KT 10SM CLR 14/03 A3001 RMK AO2 SLP172
T01440028





000
SAUS46 KMTR 181659
MTRMHS
METAR KMHS 181656Z AUTO VRB05KT 10SM CLR 09/02 A3003 RMK AO2 SLP185
T00940022





000
SAUS46 KMTR 181624
MTRMHS
SPECI KMHS 181623Z AUTO 30007KT 10SM SCT016 08/02 A3004 RMK AO2
T00830022





000
SAUS46 KMTR 181616
MTRMHS
SPECI KMHS 181614Z AUTO VRB03KT 10SM BKN016 08/03 A3004 RMK AO2
T00830028





000
SAUS46 KMTR 181458
MTRMHS
METAR KMHS 181456Z AUTO 00000KT 10SM OVC013 05/01 A3004 RMK AO2
SLP191 T00500011 51007





000
SAUS46 KMTR 181324
MTRMHS
SPECI KMHS 181323Z AUTO 00000KT 10SM BKN013 03/01 A3002 RMK AO2
T00330011





000
SAUS46 KMTR 181258
MTRMHS
METAR KMHS 181256Z AUTO 00000KT 10SM CLR 05/02 A3002 RMK AO2 SLP181
T00500017





000
SAUS46 KMTR 181227
MTRMHS
SPECI KMHS 181226Z AUTO VRB04KT 10SM FEW015 SCT021 05/02 A3001 RMK
AO2 T00500022





000
SAUS46 KMTR 181159
MTRMHS
METAR KMHS 181156Z AUTO VRB03KT 10SM BKN020 06/02 A3001 RMK AO2
SLP175 70002 T00560022 10072 20050 53002





000
SAUS46 KMTR 181030
MTRMHS
SPECI KMHS 181028Z AUTO 00000KT 10SM SCT015 OVC021 06/03 A3000 RMK
AO2 T00610033





000
SAUS46 KMTR 180958
MTRMHS
METAR KMHS 180956Z AUTO 00000KT 10SM BKN013 BKN019 06/03 A3000 RMK
AO2 SLP166 T00560028





000
SAUS46 KMTR 180954
MTRMHS
SPECI KMHS 180953Z AUTO 00000KT 10SM BKN013 BKN019 05/03 A3000 RMK
AO2





000
SAUS46 KMTR 180858
MTRMHS
METAR KMHS 180856Z AUTO 00000KT 10SM FEW029 05/03 A3000 RMK AO2
SLP165 T00500028 50005





000
SAUS46 KMTR 180839
MTRMHS
SPECI KMHS 180838Z AUTO 00000KT 10SM FEW026 SCT030 06/03 A3000 RMK
AO2 T00560028





000
SAUS46 KMTR 180809
MTRMHS
SPECI KMHS 180807Z AUTO 00000KT 10SM SCT020 BKN029 BKN036 07/03
A3001 RMK AO2 T00670033





000
SAUS46 KMTR 180658
MTRMHS
METAR KMHS 180656Z AUTO VRB04KT 10SM SCT030 07/04 A3000 RMK AO2
SLP162 T00670039





000
SAUS46 KMTR 180559
MTRMHS
METAR KMHS 180556Z AUTO VRB06KT 10SM CLR 07/04 A2998 RMK AO2 SLP155
60002 T00670039 10128 20067 51014





000
SAUS46 KMTR 180459
MTRMHS
METAR KMHS 180456Z AUTO VRB05G17KT 10SM CLR 07/04 A2997 RMK AO2
SLP156 T00670039





000
SAUS46 KMTR 180257
MTRMHS
METAR KMHS 180256Z AUTO 30007KT 280V340 10SM OVC060 08/04 A2993 RMK
AO2 RAE33 SLP150 P0002 60002 T00780039 50009





000
SAUS46 KMTR 180158
MTRMHS
METAR KMHS 180156Z AUTO 34007G24KT 250V360 8SM -RA FEW026 BKN046
OVC060 09/03 A2995 RMK AO2 RAB31 SLP160 P0000 T00890033





000
SAUS46 KMTR 180057
MTRMHS
METAR KMHS 180056Z AUTO 31008G20KT 270V360 10SM BKN039 BKN050 OVC070
10/03 A2994 RMK AO2 SLP154 T01000033





000
SAUS46 KMTR 172257
MTRMHS
METAR KMHS 172256Z AUTO 32010G20KT 250V360 10SM -RA OVC065 14/05
A2988 RMK AO2 RAB22 SLP129 P0000 T01390050





000
SAUS46 KMTR 172157
MTRMHS
METAR KMHS 172156Z AUTO 34009G17KT 310V010 10SM SCT070 BKN090 17/04
A2986 RMK AO2 SLP116 T01720044





000
SAUS46 KMTR 172057
MTRMHS
METAR KMHS 172056Z AUTO VRB05KT 10SM OVC065 18/04 A2985 RMK AO2
SLP109 T01830039 55005





000
SAUS46 KMTR 171957
MTRMHS
METAR KMHS 171956Z AUTO 30007KT 10SM OVC075 18/04 A2984 RMK AO2
SLP105 T01780044





000
SAUS46 KMTR 171857
MTRMHS
METAR KMHS 171856Z AUTO VRB06KT 10SM OVC080 18/04 A2986 RMK AO2
SLP110 T01830039





000
SAUS46 KMTR 171757
MTRMHS
METAR KMHS 171756Z AUTO VRB05KT 10SM CLR 19/04 A2986 RMK AO2 SLP108
T01940039 10194 20033 56008





000
SAUS46 KMTR 171657
MTRMHS
METAR KMHS 171656Z AUTO VRB04KT 10SM CLR 17/03 A2987 RMK AO2 SLP113
T01670033





000
SAUS46 KMTR 171457
MTRMHS
METAR KMHS 171456Z AUTO 01003KT 10SM CLR 10/02 A2989 RMK AO2 SLP124
T01000022 55008





    US Dept of Commerce
    National Oceanic and Atmospheric Administration
    National Weather Service
    1325 East West Highway
    Silver Spring, MD 20910
    Page Author: NWS Internet Services Team
Disclaimer
Information Quality
Credits
Glossary
Privacy Policy
Freedom of Information Act (FOIA)
About Us
Career Opportunities